Time;durP1;ratioP1;P1;durP2;ratioP2;P2;SDS_P1;SDS_P2;PMS_P1;PMS_P2;Temp;Humidity;BMP_temperature;BMP_pressure;BME280_temperature;BME280_humidity;BME280_pressure;Samples;Min_cycle;Max_cycle;Signal;HPM_P1;HPM_P2
2024/01/02 00:01:24;;;;;;;6.30;1.02;;;5.70;99.90;;;;;;5074258;28;20028;-63
2024/01/02 00:03:50;;;;;;;3.92;0.60;;;5.80;99.90;;;;;;5073147;28;20059;-63
2024/01/02 00:06:16;;;;;;;5.53;0.90;;;5.70;99.90;;;;;;5073174;28;20388;-63
2024/01/02 00:08:42;;;;;;;5.93;1.00;;;5.60;99.90;;;;;;5073478;28;20029;-63
2024/01/02 00:11:09;;;;;;;8.52;1.67;;;5.50;99.90;;;;;;5074756;28;20474;-63
2024/01/02 00:13:35;;;;;;;4.63;1.45;;;5.20;99.90;;;;;;5074315;28;20028;-63
2024/01/02 00:16:00;;;;;;;3.38;1.20;;;5.00;99.90;;;;;;5072792;28;20031;-63
2024/01/02 00:18:26;;;;;;;7.32;1.80;;;4.80;99.90;;;;;;5074375;28;20032;-63
2024/01/02 00:20:51;;;;;;;8.68;1.83;;;4.60;99.90;;;;;;5072930;28;20596;-63
2024/01/02 00:23:17;;;;;;;5.40;1.48;;;4.30;99.90;;;;;;5072872;28;20032;-63
2024/01/02 00:25:43;;;;;;;6.57;1.67;;;4.20;99.90;;;;;;5072881;28;20479;-63
2024/01/02 00:28:12;;;;;;;4.07;1.65;;;4.00;99.90;;;;;;5073871;28;20029;-63
2024/01/02 00:30:39;;;;;;;4.00;1.67;;;3.80;99.90;;;;;;5072852;28;20056;-63
2024/01/02 00:33:08;;;;;;;4.18;1.10;;;3.70;99.90;;;;;;5072862;28;20035;-66
2024/01/02 00:35:33;;;;;;;7.00;1.00;;;3.50;99.90;;;;;;5074839;28;20025;-63
2024/01/02 00:38:00;;;;;;;5.15;1.17;;;3.40;99.90;;;;;;5072886;28;20474;-63
2024/01/02 00:40:26;;;;;;;5.93;1.00;;;3.30;99.90;;;;;;5074488;28;20029;-64
2024/01/02 00:42:52;;;;;;;3.33;0.90;;;3.20;99.90;;;;;;5072858;28;20036;-63
2024/01/02 00:45:17;;;;;;;2.40;1.10;;;3.00;99.90;;;;;;5073906;28;20028;-63
2024/01/02 00:47:43;;;;;;;6.20;1.10;;;3.00;99.90;;;;;;5073761;28;20036;-63
2024/01/02 00:50:09;;;;;;;4.57;1.42;;;2.90;99.90;;;;;;5074001;28;20040;-63
2024/01/02 00:52:35;;;;;;;5.88;1.13;;;2.90;99.90;;;;;;5073760;28;20051;-63
2024/01/02 00:55:05;;;;;;;1.83;0.77;;;2.70;99.90;;;;;;5073884;28;20025;-63
2024/01/02 00:57:31;;;;;;;9.57;1.63;;;2.60;99.90;;;;;;5073737;28;20106;-63
2024/01/02 00:59:58;;;;;;;5.40;1.33;;;2.60;99.90;;;;;;5073799;28;20475;-63
2024/01/02 01:02:23;;;;;;;9.18;1.25;;;2.50;99.90;;;;;;5073769;28;20031;-63
2024/01/02 01:04:49;;;;;;;4.47;1.40;;;2.40;99.90;;;;;;5073814;28;20036;-63
2024/01/02 01:07:15;;;;;;;11.80;2.17;;;2.50;99.90;;;;;;5072484;28;20029;-63
2024/01/02 01:09:41;;;;;;;6.93;1.95;;;2.40;99.90;;;;;;5073819;28;20021;-63
2024/01/02 01:12:07;;;;;;;6.88;1.42;;;2.40;99.90;;;;;;5073816;28;20020;-63
2024/01/02 01:14:33;;;;;;;8.90;2.75;;;2.40;99.90;;;;;;5073649;28;20032;-63
2024/01/02 01:16:59;;;;;;;6.80;1.63;;;2.30;99.90;;;;;;5073746;28;20035;-62
2024/01/02 01:19:25;;;;;;;3.53;1.25;;;2.30;99.90;;;;;;5073983;28;20035;-63
2024/01/02 01:21:51;;;;;;;5.22;1.70;;;2.40;99.90;;;;;;5073955;28;20035;-63
2024/01/02 01:24:17;;;;;;;3.47;1.27;;;2.20;99.90;;;;;;5073515;28;20372;-63
2024/01/02 01:26:43;;;;;;;11.45;1.90;;;2.20;99.90;;;;;;5072566;28;20035;-63
2024/01/02 01:29:09;;;;;;;5.50;1.63;;;2.20;99.90;;;;;;5072236;28;20029;-63
2024/01/02 01:31:35;;;;;;;2.72;1.42;;;2.20;99.90;;;;;;5073193;28;20159;-63
2024/01/02 01:34:00;;;;;;;2.95;1.35;;;2.10;99.90;;;;;;5073643;28;20380;-63
2024/01/02 01:36:26;;;;;;;4.07;1.42;;;2.00;99.90;;;;;;5073443;28;20025;-63
2024/01/02 01:38:52;;;;;;;6.57;1.98;;;2.00;99.90;;;;;;5073476;28;20028;-63
2024/01/02 01:41:18;;;;;;;5.25;1.10;;;1.90;99.90;;;;;;5073492;28;20032;-63
2024/01/02 01:43:45;;;;;;;7.45;1.48;;;1.90;99.90;;;;;;5072295;28;20040;-63
2024/01/02 01:46:11;;;;;;;5.53;0.90;;;1.90;99.90;;;;;;5073437;28;20025;-63
2024/01/02 01:48:37;;;;;;;5.22;1.17;;;1.90;99.90;;;;;;5073098;28;20106;-64
2024/01/02 01:51:04;;;;;;;6.20;1.60;;;1.90;99.90;;;;;;5073331;28;20528;-63
2024/01/02 01:53:30;;;;;;;6.32;1.85;;;1.90;99.90;;;;;;5071785;28;20052;-63
2024/01/02 01:55:56;;;;;;;5.82;1.17;;;1.90;99.90;;;;;;5072193;28;20024;-63
2024/01/02 01:58:22;;;;;;;6.80;1.40;;;1.80;99.90;;;;;;5073516;28;20032;-63
2024/01/02 02:00:47;;;;;;;7.75;1.40;;;1.80;99.90;;;;;;5077255;28;20025;-63
2024/01/02 02:03:14;;;;;;;5.35;1.50;;;1.80;99.90;;;;;;5075628;28;20036;-63
2024/01/02 02:05:40;;;;;;;5.22;1.50;;;1.70;99.90;;;;;;5075551;28;20032;-63
2024/01/02 02:08:05;;;;;;;2.78;1.40;;;1.90;99.90;;;;;;5075471;28;20020;-63
2024/01/02 02:10:31;;;;;;;4.15;1.20;;;1.60;99.90;;;;;;5075856;28;20027;-63
2024/01/02 02:12:57;;;;;;;7.00;1.33;;;1.60;99.90;;;;;;5076701;28;20021;-63
2024/01/02 02:15:23;;;;;;;3.05;1.05;;;1.60;99.90;;;;;;5076511;28;20040;-63
2024/01/02 02:17:49;;;;;;;4.97;2.58;;;1.70;99.90;;;;;;5075319;28;20032;-63
2024/01/02 02:20:15;;;;;;;6.30;1.27;;;1.60;99.90;;;;;;5075013;28;20115;-63
2024/01/02 02:22:51;;;;;;;5.55;2.08;;;1.60;99.90;;;;;;5076405;28;20067;-63
2024/01/02 02:25:18;;;;;;;8.02;1.40;;;1.50;99.90;;;;;;5076314;28;20068;-63
2024/01/02 02:27:45;;;;;;;5.82;1.23;;;1.60;99.90;;;;;;5075174;28;20025;-63
2024/01/02 02:30:12;;;;;;;8.02;2.25;;;1.40;99.90;;;;;;5076393;28;20116;-63
2024/01/02 02:32:37;;;;;;;2.00;1.00;;;1.40;99.90;;;;;;5076651;28;20375;-62
2024/01/02 02:35:05;;;;;;;4.55;1.38;;;1.40;99.90;;;;;;5076320;28;20028;-63
2024/01/02 02:37:30;;;;;;;4.05;1.80;;;1.30;99.90;;;;;;5076555;28;20028;-63
2024/01/02 02:39:56;;;;;;;3.97;1.23;;;1.50;99.90;;;;;;5076462;28;20048;-63
2024/01/02 02:42:21;;;;;;;7.00;1.58;;;1.30;99.90;;;;;;5076234;28;20020;-63
2024/01/02 02:44:47;;;;;;;5.63;1.10;;;1.30;99.90;;;;;;5076072;28;20029;-63
2024/01/02 02:47:13;;;;;;;3.90;0.95;;;1.30;99.90;;;;;;5076424;28;20027;-63
2024/01/02 02:49:39;;;;;;;5.40;1.40;;;1.30;99.90;;;;;;5074744;28;20029;-63
2024/01/02 02:52:05;;;;;;;4.55;1.20;;;1.90;99.90;;;;;;5076052;28;20041;-63
2024/01/02 02:54:30;;;;;;;3.17;1.52;;;1.10;99.90;;;;;;5074436;28;20044;-63
2024/01/02 02:56:56;;;;;;;4.53;1.15;;;1.10;99.90;;;;;;5076280;28;20032;-62
2024/01/02 02:59:21;;;;;;;4.47;1.52;;;1.10;99.90;;;;;;5074587;28;20357;-63
2024/01/02 03:01:47;;;;;;;6.93;1.30;;;1.00;99.90;;;;;;5075793;28;20024;-62
2024/01/02 03:04:13;;;;;;;3.33;1.20;;;1.00;99.90;;;;;;5075425;28;20029;-63
2024/01/02 03:06:39;;;;;;;5.95;1.30;;;1.10;99.90;;;;;;5075774;28;20021;-63
2024/01/02 03:09:04;;;;;;;8.95;1.85;;;2.00;99.90;;;;;;5074420;28;20078;-63
2024/01/02 03:11:30;;;;;;;4.25;1.35;;;0.90;99.90;;;;;;5074110;28;20024;-62
2024/01/02 03:13:56;;;;;;;7.10;1.38;;;0.90;99.90;;;;;;5075636;28;20071;-62
2024/01/02 03:16:24;;;;;;;2.92;1.40;;;0.80;99.90;;;;;;5075543;28;20020;-63
2024/01/02 03:18:49;;;;;;;3.22;1.20;;;0.80;99.90;;;;;;5074233;28;20024;-63
2024/01/02 03:21:15;;;;;;;6.30;1.52;;;0.80;99.90;;;;;;5076095;28;20463;-66
2024/01/02 03:23:41;;;;;;;4.13;1.42;;;0.70;99.90;;;;;;5076316;28;20525;-63
2024/01/02 03:26:09;;;;;;;3.35;1.60;;;0.80;99.90;;;;;;5076257;28;20020;-63
2024/01/02 03:28:34;;;;;;;5.22;1.25;;;0.80;99.90;;;;;;5075897;28;20078;-63
2024/01/02 03:31:03;;;;;;;9.15;2.08;;;0.70;99.90;;;;;;5075269;28;20428;-63
2024/01/02 03:33:29;;;;;;;4.45;1.42;;;0.70;99.90;;;;;;5075304;28;20553;-63
2024/01/02 03:35:54;;;;;;;6.63;1.40;;;0.70;99.90;;;;;;5075701;28;20060;-63
2024/01/02 03:38:20;;;;;;;3.15;1.17;;;0.70;99.90;;;;;;5074867;28;20021;-62
2024/01/02 03:40:46;;;;;;;5.18;1.08;;;0.60;99.90;;;;;;5074876;28;20384;-63
2024/01/02 03:43:11;;;;;;;9.82;1.48;;;0.60;99.90;;;;;;5074984;28;20025;-63
2024/01/02 03:45:37;;;;;;;7.57;2.00;;;0.50;99.90;;;;;;5075537;28;20115;-63
2024/01/02 03:48:03;;;;;;;6.78;2.40;;;0.50;99.90;;;;;;5075023;28;20021;-63
2024/01/02 03:50:29;;;;;;;3.75;1.83;;;0.50;99.90;;;;;;5074536;28;20040;-63
2024/01/02 03:52:54;;;;;;;1.85;1.63;;;0.50;99.90;;;;;;5074850;28;20048;-63
2024/01/02 03:55:20;;;;;;;7.00;2.00;;;0.50;99.90;;;;;;5074400;28;20361;-63
2024/01/02 03:57:47;;;;;;;5.38;2.03;;;0.50;99.90;;;;;;5074704;28;20082;-63
2024/01/02 04:00:13;;;;;;;5.90;1.80;;;0.50;99.90;;;;;;5074730;28;20029;-62
2024/01/02 04:02:39;;;;;;;7.43;1.90;;;0.50;99.90;;;;;;5074828;28;20029;-63
2024/01/02 04:05:05;;;;;;;4.95;1.35;;;0.50;99.90;;;;;;5074596;28;20123;-63
2024/01/02 04:07:30;;;;;;;5.22;1.50;;;0.50;99.90;;;;;;5073384;28;20028;-63
2024/01/02 04:09:56;;;;;;;4.72;1.35;;;0.50;99.90;;;;;;5074692;28;20036;-63
2024/01/02 04:12:22;;;;;;;5.18;1.63;;;0.80;99.90;;;;;;5073218;28;20024;-63
2024/01/02 04:14:47;;;;;;;5.72;1.67;;;0.40;99.90;;;;;;5074109;28;20033;-63
2024/01/02 04:17:13;;;;;;;4.45;1.58;;;1.40;99.90;;;;;;5073180;28;20395;-63
2024/01/02 04:19:38;;;;;;;7.70;2.67;;;0.40;99.90;;;;;;5074771;28;20472;-64
2024/01/02 04:22:04;;;;;;;5.65;1.90;;;0.40;99.90;;;;;;5073106;28;20028;-63
2024/01/02 04:24:30;;;;;;;5.85;2.05;;;0.40;99.90;;;;;;5074660;28;20547;-63
2024/01/02 04:26:56;;;;;;;4.85;1.50;;;0.40;99.90;;;;;;5073654;28;20116;-63
2024/01/02 04:29:22;;;;;;;4.78;1.80;;;0.40;99.90;;;;;;5073899;28;20059;-63
2024/01/02 04:31:47;;;;;;;3.25;1.50;;;0.40;99.90;;;;;;5074518;28;20031;-63
2024/01/02 04:34:13;;;;;;;6.57;1.55;;;0.40;99.90;;;;;;5074277;28;20469;-63
2024/01/02 04:36:40;;;;;;;7.50;1.75;;;0.90;99.90;;;;;;5072839;28;20092;-63
2024/01/02 04:39:06;;;;;;;6.45;1.80;;;0.40;99.90;;;;;;5074059;28;20024;-63
2024/01/02 04:41:32;;;;;;;3.38;1.48;;;0.30;99.90;;;;;;5074006;28;20024;-63
2024/01/02 04:43:57;;;;;;;6.25;1.60;;;0.30;99.90;;;;;;5073979;28;20482;-62
2024/01/02 04:46:23;;;;;;;9.98;2.08;;;0.40;99.90;;;;;;5073942;28;20051;-63
2024/01/02 04:48:49;;;;;;;18.20;3.58;;;0.40;99.90;;;;;;5073956;28;20032;-63
2024/01/02 04:51:14;;;;;;;6.15;2.13;;;0.50;99.90;;;;;;5073915;28;20024;-63
2024/01/02 04:53:41;;;;;;;8.02;2.15;;;1.00;99.90;;;;;;5073523;28;20052;-63
2024/01/02 04:56:07;;;;;;;4.85;1.80;;;0.60;99.90;;;;;;5072474;28;20031;-63
2024/01/02 04:58:32;;;;;;;5.13;1.75;;;0.70;99.90;;;;;;5073804;28;20033;-63
2024/01/02 05:00:58;;;;;;;5.22;1.60;;;0.70;99.90;;;;;;5072531;28;20029;-63
2024/01/02 05:03:23;;;;;;;7.75;3.05;;;0.90;99.90;;;;;;5073400;28;20087;-63
2024/01/02 05:05:49;;;;;;;8.35;2.03;;;1.00;99.90;;;;;;5073488;28;20059;-63
2024/01/02 05:08:15;;;;;;;7.63;2.97;;;0.90;99.90;;;;;;5073901;28;20148;-62
2024/01/02 05:10:40;;;;;;;5.25;2.20;;;1.10;99.90;;;;;;5073684;28;20103;-63
2024/01/02 05:13:07;;;;;;;4.47;2.40;;;0.90;99.90;;;;;;5073786;28;20025;-63
2024/01/02 05:15:32;;;;;;;7.18;4.22;;;1.10;99.90;;;;;;5074019;28;20066;-63
2024/01/02 05:17:58;;;;;;;11.73;2.78;;;0.90;99.90;;;;;;5073011;28;20381;-63
2024/01/02 05:20:23;;;;;;;6.55;2.85;;;0.90;99.90;;;;;;5072781;28;20021;-63
2024/01/02 05:22:49;;;;;;;10.05;2.90;;;1.20;99.90;;;;;;5073816;28;20036;-63
2024/01/02 05:25:15;;;;;;;17.40;4.03;;;0.90;99.90;;;;;;5072206;28;20029;-63
2024/01/02 05:27:40;;;;;;;10.90;3.08;;;0.80;99.90;;;;;;5073398;28;20425;-62
2024/01/02 05:30:07;;;;;;;9.13;2.67;;;0.80;99.90;;;;;;5073523;28;20400;-63
2024/01/02 05:32:32;;;;;;;6.13;2.58;;;0.80;99.90;;;;;;5073763;28;20056;-63
2024/01/02 05:34:58;;;;;;;8.77;3.22;;;0.80;99.90;;;;;;5077904;28;20071;-63
2024/01/02 05:37:23;;;;;;;11.25;3.30;;;0.80;99.90;;;;;;5077370;28;20052;-63
2024/01/02 05:39:49;;;;;;;8.07;2.78;;;0.80;99.90;;;;;;5077323;28;20021;-63
2024/01/02 05:42:15;;;;;;;9.05;2.92;;;0.80;99.90;;;;;;5077295;28;20029;-62
2024/01/02 05:44:40;;;;;;;12.10;3.20;;;0.70;99.90;;;;;;5075878;28;20033;-63
2024/01/02 05:47:07;;;;;;;10.05;3.17;;;0.70;99.90;;;;;;5075592;28;20029;-63
2024/01/02 05:49:33;;;;;;;11.32;3.55;;;1.00;99.90;;;;;;5076800;28;20029;-63
2024/01/02 05:51:58;;;;;;;10.27;3.63;;;0.70;99.90;;;;;;5076573;28;20048;-63
2024/01/02 05:54:24;;;;;;;16.27;4.63;;;0.70;99.90;;;;;;5076005;28;20039;-63
2024/01/02 05:56:50;;;;;;;9.60;3.60;;;1.00;99.90;;;;;;5076968;28;20017;-63
2024/01/02 05:59:15;;;;;;;14.95;4.18;;;0.70;99.90;;;;;;5077024;28;20092;-63
2024/01/02 06:01:41;;;;;;;10.85;4.80;;;0.60;99.90;;;;;;5077136;28;20031;-63
2024/01/02 06:04:06;;;;;;;11.65;4.10;;;0.60;99.90;;;;;;5075489;28;20059;-63
2024/01/02 06:06:32;;;;;;;14.27;3.53;;;0.60;99.90;;;;;;5075532;28;20021;-63
2024/01/02 06:08:58;;;;;;;10.40;3.33;;;0.80;99.90;;;;;;5076853;28;20461;-63
2024/01/02 06:11:23;;;;;;;8.68;2.92;;;0.60;99.90;;;;;;5076748;28;20032;-63
2024/01/02 06:13:49;;;;;;;7.97;2.88;;;0.60;99.90;;;;;;5076755;28;20035;-63
2024/01/02 06:16:14;;;;;;;8.07;3.45;;;0.60;99.90;;;;;;5075415;28;20028;-63
2024/01/02 06:18:40;;;;;;;15.77;3.67;;;0.60;99.90;;;;;;5075413;28;20060;-63
2024/01/02 06:21:07;;;;;;;8.38;2.63;;;0.60;99.90;;;;;;5075325;28;20098;-64
2024/01/02 06:23:33;;;;;;;8.23;2.50;;;0.60;99.90;;;;;;5075324;28;20029;-63
2024/01/02 06:25:58;;;;;;;6.57;2.70;;;0.60;99.90;;;;;;5077330;28;20028;-63
2024/01/02 06:28:24;;;;;;;10.27;2.92;;;0.70;99.90;;;;;;5075439;28;20055;-63
2024/01/02 06:30:50;;;;;;;11.32;3.28;;;0.60;99.90;;;;;;5076786;28;20020;-64
2024/01/02 06:33:16;;;;;;;13.05;3.83;;;0.60;99.90;;;;;;5075120;28;20087;-63
2024/01/02 06:35:42;;;;;;;8.13;3.15;;;0.70;99.90;;;;;;5076105;28;20057;-63
2024/01/02 06:38:09;;;;;;;6.70;3.08;;;0.70;99.90;;;;;;5075126;28;20066;-63
2024/01/02 06:40:35;;;;;;;9.88;3.05;;;0.70;99.90;;;;;;5075050;28;20027;-63
2024/01/02 06:43:01;;;;;;;5.68;2.88;;;0.70;99.90;;;;;;5076287;28;20505;-63
2024/01/02 06:45:26;;;;;;;11.15;3.47;;;0.70;99.90;;;;;;5075540;28;20024;-63
2024/01/02 06:47:52;;;;;;;8.15;4.00;;;0.70;99.90;;;;;;5076105;28;20056;-63
2024/01/02 06:50:17;;;;;;;9.93;3.53;;;0.70;99.90;;;;;;5076289;28;20028;-63
2024/01/02 06:52:43;;;;;;;16.08;4.65;;;0.70;99.90;;;;;;5076046;28;20487;-63
2024/01/02 06:55:09;;;;;;;10.93;4.15;;;0.70;99.90;;;;;;5076230;28;20036;-63
2024/01/02 06:57:34;;;;;;;12.30;4.10;;;1.40;99.90;;;;;;5075918;28;20032;-63
2024/01/02 07:00:00;;;;;;;13.60;4.40;;;0.70;99.90;;;;;;5074568;28;20032;-63
2024/01/02 07:02:25;;;;;;;10.88;4.13;;;0.70;99.90;;;;;;5074800;28;20465;-66
2024/01/02 07:04:51;;;;;;;13.65;4.43;;;0.70;99.90;;;;;;5075807;28;20029;-63
2024/01/02 07:07:17;;;;;;;9.68;3.80;;;0.80;99.90;;;;;;5075710;28;20478;-62
2024/01/02 07:09:42;;;;;;;8.35;3.40;;;0.80;99.90;;;;;;5074933;28;20024;-62
2024/01/02 07:12:08;;;;;;;12.32;4.40;;;0.80;99.90;;;;;;5075611;28;20051;-63
2024/01/02 07:14:34;;;;;;;11.10;4.30;;;0.80;99.90;;;;;;5075524;28;20052;-63
2024/01/02 07:16:59;;;;;;;10.50;4.28;;;0.80;99.90;;;;;;5075551;28;20075;-63
2024/01/02 07:19:25;;;;;;;11.30;4.30;;;0.80;99.90;;;;;;5075186;28;20048;-63
2024/01/02 07:21:51;;;;;;;14.15;4.63;;;0.90;99.90;;;;;;5074236;28;20032;-63
2024/01/02 07:24:17;;;;;;;15.43;5.78;;;0.90;99.90;;;;;;5075039;28;20492;-63
2024/01/02 07:26:42;;;;;;;10.43;4.45;;;0.90;99.90;;;;;;5075336;28;20408;-63
2024/01/02 07:29:08;;;;;;;11.82;5.15;;;1.00;99.90;;;;;;5075476;28;20380;-63
2024/01/02 07:31:35;;;;;;;12.63;4.60;;;1.10;99.90;;;;;;5073908;28;20435;-63
2024/01/02 07:34:01;;;;;;;13.75;5.10;;;1.10;99.90;;;;;;5073878;28;20035;-63
2024/01/02 07:36:27;;;;;;;15.60;4.90;;;1.20;99.90;;;;;;5073739;28;20464;-63
2024/01/02 07:38:53;;;;;;;11.88;4.95;;;1.30;99.90;;;;;;5074755;28;20025;-63
2024/01/02 07:41:19;;;;;;;11.57;4.10;;;1.40;99.90;;;;;;5075001;28;20063;-63
2024/01/02 07:43:44;;;;;;;10.38;3.75;;;1.50;99.90;;;;;;5074036;28;20465;-58
2024/01/02 07:46:10;;;;;;;12.38;4.60;;;1.50;99.90;;;;;;5074918;28;20064;-58
2024/01/02 07:48:36;;;;;;;11.93;5.03;;;1.60;99.90;;;;;;5075430;28;20024;-64
2024/01/02 07:51:02;;;;;;;15.50;3.95;;;1.70;99.90;;;;;;5075043;28;20074;-63
2024/01/02 07:53:28;;;;;;;14.82;5.97;;;1.70;99.90;;;;;;5074994;28;20052;-63
2024/01/02 07:55:54;;;;;;;7.90;3.35;;;1.70;99.90;;;;;;5074555;28;20032;-63
2024/01/02 07:58:19;;;;;;;9.98;4.35;;;1.80;99.90;;;;;;5074440;28;20419;-64
2024/01/02 08:00:45;;;;;;;7.90;4.50;;;1.80;99.90;;;;;;5073450;28;20038;-63
2024/01/02 08:03:11;;;;;;;10.82;4.20;;;1.80;99.90;;;;;;5074346;28;20032;-63
2024/01/02 08:05:36;;;;;;;13.95;4.57;;;1.90;99.90;;;;;;5074584;28;20475;-63
2024/01/02 08:08:02;;;;;;;11.30;4.55;;;2.00;99.90;;;;;;5074556;28;20067;-64
2024/01/02 08:10:28;;;;;;;16.23;5.45;;;2.00;99.90;;;;;;5074461;28;20021;-63
2024/01/02 08:12:54;;;;;;;10.48;4.53;;;2.00;99.90;;;;;;5074135;28;20024;-64
2024/01/02 08:15:19;;;;;;;8.60;4.18;;;2.00;99.90;;;;;;5072822;28;20060;-63
2024/01/02 08:17:46;;;;;;;11.82;4.45;;;2.00;99.90;;;;;;5074393;28;20017;-63
2024/01/02 08:20:12;;;;;;;9.32;3.20;;;2.10;99.90;;;;;;5073146;28;20101;-63
2024/01/02 08:22:37;;;;;;;8.20;4.15;;;2.10;99.90;;;;;;5075274;28;20464;-63
2024/01/02 08:25:03;;;;;;;10.45;3.90;;;2.10;99.90;;;;;;5074189;28;20033;-63
2024/01/02 08:27:29;;;;;;;15.95;4.65;;;2.20;99.90;;;;;;5073038;28;20487;-63
2024/01/02 08:29:55;;;;;;;7.65;4.07;;;2.20;99.90;;;;;;5066332;28;20032;-63
2024/01/02 08:32:22;;;;;;;9.82;4.13;;;2.20;99.90;;;;;;5054222;28;20032;-63
2024/01/02 08:34:49;;;;;;;6.80;4.03;;;2.30;99.90;;;;;;5052820;28;20033;-63
2024/01/02 08:37:20;;;;;;;6.93;3.65;;;2.40;99.90;;;;;;5052740;28;20037;-64
2024/01/02 08:39:47;;;;;;;11.98;4.53;;;2.50;99.90;;;;;;5053794;28;20025;-63
2024/01/02 08:42:14;;;;;;;7.88;3.90;;;2.50;99.90;;;;;;5052748;28;20112;-63
2024/01/02 08:44:40;;;;;;;11.35;3.65;;;2.60;99.90;;;;;;5053871;28;20037;-64
2024/01/02 08:47:05;;;;;;;7.93;3.60;;;2.70;99.90;;;;;;5053696;28;20100;-63
2024/01/02 08:49:31;;;;;;;8.88;3.45;;;2.70;99.90;;;;;;5052875;28;20025;-64
2024/01/02 08:51:57;;;;;;;7.55;3.50;;;2.90;99.90;;;;;;5053976;28;20086;-64
2024/01/02 08:54:22;;;;;;;9.50;4.35;;;2.90;99.90;;;;;;5052812;28;20057;-64
2024/01/02 08:56:48;;;;;;;8.70;3.10;;;3.00;99.90;;;;;;5053961;28;20039;-64
2024/01/02 08:59:13;;;;;;;12.77;4.10;;;3.00;99.90;;;;;;5052432;28;20029;-64
2024/01/02 09:01:39;;;;;;;8.57;4.35;;;3.10;99.90;;;;;;5052608;28;20125;-63
2024/01/02 09:04:05;;;;;;;8.43;3.90;;;3.20;99.90;;;;;;5053389;28;20037;-64
2024/01/02 09:06:31;;;;;;;12.27;4.53;;;3.20;99.90;;;;;;5052170;28;20025;-64
2024/01/02 09:08:57;;;;;;;9.35;3.50;;;3.30;99.90;;;;;;5058290;28;20155;-63
2024/01/02 09:11:24;;;;;;;5.43;2.50;;;3.40;99.90;;;;;;5059083;28;20115;-63
2024/01/02 09:13:50;;;;;;;8.50;2.80;;;3.50;99.90;;;;;;5059022;28;20032;-63
2024/01/02 09:16:17;;;;;;;7.22;2.63;;;3.60;99.90;;;;;;5059961;28;20108;-63
2024/01/02 09:18:42;;;;;;;7.32;3.25;;;3.80;99.90;;;;;;5058620;28;20032;-64
2024/01/02 09:21:08;;;;;;;10.65;2.97;;;3.90;99.90;;;;;;5060186;28;20033;-63
2024/01/02 09:23:34;;;;;;;9.93;2.80;;;4.00;99.90;;;;;;5060113;28;20036;-63
2024/01/02 09:26:04;;;;;;;9.07;2.40;;;4.10;99.90;;;;;;5058940;28;20055;-63
2024/01/02 09:28:30;;;;;;;7.28;2.75;;;4.20;99.90;;;;;;5058858;28;20025;-64
2024/01/02 09:30:56;;;;;;;7.18;2.65;;;4.30;99.90;;;;;;5058918;28;20602;-63
2024/01/02 09:33:25;;;;;;;7.88;2.28;;;4.40;99.90;;;;;;5058894;28;20025;-63
2024/01/02 09:35:51;;;;;;;7.20;2.45;;;4.50;99.90;;;;;;5060182;28;20086;-64
2024/01/02 09:38:16;;;;;;;7.90;2.30;;;4.50;99.90;;;;;;5060060;28;20037;-63
2024/01/02 09:41:05;;;;;;;7.20;3.15;;;4.60;99.90;;;;;;5060118;28;20024;-63
2024/01/02 09:43:41;;;;;;;3.63;2.33;;;4.70;99.90;;;;;;5060111;28;20037;-63
2024/01/02 09:46:26;;;;;;;7.43;2.40;;;4.80;99.90;;;;;;5060145;28;20021;-64
2024/01/02 09:49:13;;;;;;;10.40;3.05;;;4.90;99.90;;;;;;5059984;28;20481;-63
2024/01/02 09:51:41;;;;;;;5.30;2.40;;;4.90;99.90;;;;;;5059013;28;20134;-63
2024/01/02 09:54:21;;;;;;;2.50;1.88;;;5.00;99.90;;;;;;5060128;28;20063;-63
2024/01/02 09:57:03;;;;;;;5.53;2.70;;;5.00;99.90;;;;;;5060611;28;20035;-64
2024/01/02 10:00:00;;;;;;;8.57;2.35;;;5.00;99.90;;;;;;5059362;28;20044;-63
2024/01/02 10:02:37;;;;;;;6.30;2.42;;;5.00;99.90;;;;;;5058654;28;20226;-63
2024/01/02 10:05:29;;;;;;;7.05;2.33;;;5.00;99.90;;;;;;5059581;28;20033;-64
2024/01/02 10:08:03;;;;;;;7.93;3.05;;;5.00;99.90;;;;;;5060237;28;20036;-63
2024/01/02 10:10:29;;;;;;;7.57;2.80;;;5.10;99.90;;;;;;5059833;28;20388;-64
2024/01/02 10:13:06;;;;;;;8.32;3.50;;;5.10;99.90;;;;;;5059889;28;20522;-63
2024/01/02 10:15:52;;;;;;;11.07;4.43;;;5.10;99.90;;;;;;5060039;28;20472;-63
2024/01/02 10:18:39;;;;;;;16.20;5.30;;;5.20;99.90;;;;;;5058516;28;20488;-63
2024/01/02 10:21:08;;;;;;;8.05;3.25;;;5.20;99.90;;;;;;5055669;28;20059;-63
2024/01/02 10:23:52;;;;;;;6.63;2.92;;;5.20;99.90;;;;;;5056598;28;20033;-63
2024/01/02 10:26:19;;;;;;;8.70;2.83;;;5.20;99.90;;;;;;5055394;28;20098;-64
2024/01/02 10:28:49;;;;;;;7.55;3.30;;;5.30;99.90;;;;;;5056422;28;20079;-64
2024/01/02 10:31:30;;;;;;;6.05;2.22;;;5.40;99.90;;;;;;5056620;28;20025;-63
2024/01/02 10:34:14;;;;;;;4.65;2.40;;;5.40;99.90;;;;;;5055267;28;20033;-64
2024/01/02 10:36:49;;;;;;;11.15;3.25;;;5.40;99.90;;;;;;5056396;28;20111;-63
2024/01/02 10:39:37;;;;;;;8.43;3.03;;;5.50;99.90;;;;;;5055725;28;20021;-63
2024/01/02 10:42:22;;;;;;;8.52;3.47;;;5.50;99.90;;;;;;5056259;28;20021;-64
2024/01/02 10:44:54;;;;;;;5.13;2.50;;;5.60;99.90;;;;;;5034952;28;20052;-64
2024/01/02 10:47:39;;;;;;;4.32;2.33;;;5.60;99.90;;;;;;5056335;28;20079;-63
2024/01/02 10:50:11;;;;;;;7.68;2.83;;;5.70;99.90;;;;;;5054759;28;20025;-63
2024/01/02 10:52:41;;;;;;;5.35;2.50;;;5.80;99.90;;;;;;5054546;28;20046;-63
2024/01/02 10:55:26;;;;;;;6.30;2.20;;;5.80;99.90;;;;;;5056150;28;20090;-63
2024/01/02 10:58:22;;;;;;;7.90;2.50;;;5.90;99.90;;;;;;5055120;28;20063;-64
2024/01/02 11:01:00;;;;;;;6.45;2.78;;;6.00;99.90;;;;;;5055825;28;20043;-64
2024/01/02 11:03:29;;;;;;;5.70;2.17;;;6.10;99.90;;;;;;5055986;28;20032;-63
2024/01/02 11:06:04;;;;;;;;;;;6.20;99.90;;;;;;5056203;28;20037;-63
2024/01/02 11:08:54;;;;;;;4.07;2.00;;;6.20;99.90;;;;;;5056010;28;19908;-64
2024/01/02 11:11:20;;;;;;;6.53;2.20;;;6.30;99.90;;;;;;5055710;28;20419;-63
2024/01/02 11:13:48;;;;;;;3.55;2.30;;;6.40;99.90;;;;;;5055962;28;20094;-64
2024/01/02 11:16:22;;;;;;;3.63;1.95;;;6.50;99.90;;;;;;5055852;28;20025;-64
2024/01/02 11:18:52;;;;;;;3.00;1.75;;;6.60;99.90;;;;;;5055630;28;20032;-63
2024/01/02 11:21:17;;;;;;;6.03;2.40;;;6.70;99.90;;;;;;5054241;28;20504;-68
2024/01/02 11:23:49;;;;;;;3.88;1.88;;;6.70;99.90;;;;;;5054061;28;20068;-64
2024/01/02 11:26:25;;;;;;;3.30;1.35;;;6.70;99.90;;;;;;5055608;28;20036;-64
2024/01/02 11:29:00;;;;;;;4.95;1.75;;;6.80;99.90;;;;;;5054071;28;20082;-63
2024/01/02 11:31:29;;;;;;;6.13;1.75;;;6.90;99.90;;;;;;5054977;28;20082;-64
2024/01/02 11:34:07;;;;;;;8.43;1.77;;;6.90;99.90;;;;;;5054751;28;20120;-63
2024/01/02 11:36:47;;;;;;;4.90;1.30;;;7.00;99.90;;;;;;5055475;28;20031;-64
2024/01/02 11:39:15;;;;;;;7.65;2.20;;;7.10;99.90;;;;;;5055141;28;20138;-64
2024/01/02 11:42:00;;;;;;;4.73;1.70;;;7.10;99.90;;;;;;5054808;28;20032;-64
2024/01/02 11:44:31;;;;;;;5.15;1.90;;;7.20;99.90;;;;;;5055133;28;20059;-63
2024/01/02 11:47:04;;;;;;;4.97;2.15;;;7.20;99.90;;;;;;5053765;28;20461;-64
2024/01/02 11:49:32;;;;;;;4.05;1.48;;;7.30;99.90;;;;;;5055215;28;20068;-63
2024/01/02 11:52:11;;;;;;;3.47;1.95;;;7.30;99.90;;;;;;5054871;28;20033;-64
2024/01/02 11:55:00;;;;;;;4.18;2.03;;;7.30;99.90;;;;;;5054831;28;20036;-64
2024/01/02 11:57:42;;;;;;;6.80;1.58;;;7.40;99.90;;;;;;5053331;28;20024;-64
2024/01/02 12:00:10;;;;;;;4.95;1.60;;;7.40;99.90;;;;;;5054631;28;20036;-64
2024/01/02 12:03:18;;;;;;;4.60;1.70;;;7.40;99.90;;;;;;5054613;28;20029;-63
2024/01/02 12:05:50;;;;;;;4.82;1.63;;;7.40;99.90;;;;;;5053434;28;20033;-63
2024/01/02 12:08:22;;;;;;;4.72;1.90;;;7.40;99.90;;;;;;5054773;28;20040;-64
2024/01/02 12:10:49;;;;;;;4.40;1.63;;;7.40;99.90;;;;;;5054866;28;20025;-64
2024/01/02 12:13:26;;;;;;;2.78;1.50;;;7.40;99.90;;;;;;5053004;28;20036;-64
2024/01/02 12:15:54;;;;;;;7.75;1.67;;;7.50;99.90;;;;;;5054667;28;20027;-64
2024/01/02 12:18:26;;;;;;;3.83;1.90;;;7.50;99.90;;;;;;5053082;28;20147;-64
2024/01/02 12:20:58;;;;;;;3.83;1.67;;;7.60;99.20;;;;;;5054322;28;20021;-64
2024/01/02 12:23:24;;;;;;;5.32;1.75;;;7.70;99.80;;;;;;5052903;28;20025;-64
2024/01/02 12:25:55;;;;;;;4.40;1.73;;;7.90;98.80;;;;;;5053008;28;20120;-64
2024/01/02 12:28:24;;;;;;;2.13;1.40;;;8.10;98.70;;;;;;5054254;28;20032;-64
2024/01/02 12:31:08;;;;;;;3.63;1.75;;;8.30;98.20;;;;;;5054228;28;20025;-64
2024/01/02 12:33:35;;;;;;;2.53;1.40;;;8.40;97.90;;;;;;5054395;28;20460;-64
2024/01/02 12:36:26;;;;;;;5.82;1.88;;;8.50;97.70;;;;;;5053821;28;20035;-64
2024/01/02 12:38:55;;;;;;;5.97;1.77;;;8.60;97.00;;;;;;5054204;28;20079;-64
2024/01/02 12:41:24;;;;;;;3.20;1.45;;;8.60;97.00;;;;;;5054035;28;20090;-64
2024/01/02 12:43:52;;;;;;;3.13;1.50;;;8.60;95.70;;;;;;5053510;28;20051;-63
2024/01/02 12:46:25;;;;;;;3.35;1.50;;;8.70;95.70;;;;;;5053942;28;20029;-64
2024/01/02 12:48:58;;;;;;;4.85;1.52;;;8.60;95.70;;;;;;5053975;28;20110;-64
2024/01/02 12:51:29;;;;;;;3.95;1.98;;;8.70;96.30;;;;;;5054113;28;20032;-64
2024/01/02 12:53:57;;;;;;;2.22;1.70;;;8.70;96.20;;;;;;5053663;28;20056;-64
2024/01/02 12:56:25;;;;;;;3.13;1.70;;;8.60;95.70;;;;;;5054100;28;20025;-64
2024/01/02 12:58:52;;;;;;;3.30;1.83;;;8.50;95.80;;;;;;5052613;28;20025;-64
2024/01/02 13:01:19;;;;;;;3.17;1.35;;;8.50;96.20;;;;;;5052534;28;20028;-64